Time;durP1;ratioP1;P1;durP2;ratioP2;P2;SDS_P1;SDS_P2;PMS_P1;PMS_P2;Temp;Humidity;BMP_temperature;BMP_pressure;BME280_temperature;BME280_humidity;BME280_pressure;Samples;Min_cycle;Max_cycle;Signal;HPM_P1;HPM_P2
2023/05/12 00:01:37;;;;;;;;;;;11.60;99.90;;;;;;4871356;29;19959;-82
2023/05/12 00:04:02;;;;;;;;;;;11.60;99.90;;;;;;4902780;29;19935;-82
2023/05/12 00:06:28;;;;;;;;;;;11.80;99.90;;;;;;4902102;29;19927;-84
2023/05/12 00:08:54;;;;;;;;;;;11.50;99.90;;;;;;4902426;29;19931;-82
2023/05/12 00:11:20;;;;;;;;;;;11.50;99.90;;;;;;4888852;29;20335;-82
2023/05/12 00:13:46;;;;;;;;;;;11.50;99.90;;;;;;4904798;29;19932;-82
2023/05/12 00:16:14;;;;;;;;;;;11.60;99.90;;;;;;4917150;29;19927;-83
2023/05/12 00:18:39;;;;;;;;;;;11.50;99.90;;;;;;4917037;29;20293;-82
2023/05/12 00:21:07;;;;;;;;;;;11.50;99.90;;;;;;4885321;29;19954;-83
2023/05/12 00:23:33;;;;;;;;;;;11.60;99.90;;;;;;4916493;29;19971;-82
2023/05/12 00:25:58;;;;;;;;;;;11.60;99.90;;;;;;4900911;29;19965;-81
2023/05/12 00:28:24;;;;;;;;;;;11.50;99.90;;;;;;4900550;29;19935;-78
2023/05/12 00:30:50;;;;;;;;;;;11.60;99.90;;;;;;4884344;29;19934;-82
2023/05/12 00:33:16;;;;;;;;;;;11.60;99.90;;;;;;4900693;29;19927;-85
2023/05/12 00:35:44;;;;;;;;;;;11.60;99.90;;;;;;4902474;29;20338;-82
2023/05/12 00:38:10;;;;;;;;;;;11.60;99.90;;;;;;4886692;29;19928;-83
2023/05/12 00:40:36;;;;;;;;;;;11.60;99.90;;;;;;4884228;29;19928;-82
2023/05/12 00:43:01;;;;;;;;;;;11.60;99.90;;;;;;4884877;29;19935;-82
2023/05/12 00:45:28;;;;;;;;;;;11.70;99.90;;;;;;4884625;29;19934;-78
2023/05/12 00:47:54;;;;;;;;;;;11.60;99.90;;;;;;4884824;29;19947;-82
2023/05/12 00:50:20;;;;;;;;;;;11.70;99.90;;;;;;4915805;29;20062;-82
2023/05/12 00:52:46;;;;;;;;;;;11.70;99.90;;;;;;4900109;29;19928;-84
2023/05/12 00:55:11;;;;;;;;;;;11.70;99.90;;;;;;4909639;29;19983;-82
2023/05/12 00:57:37;;;;;;;;;;;11.60;99.90;;;;;;4897363;29;20322;-83
2023/05/12 01:00:03;;;;;;;;;;;11.70;99.90;;;;;;4885695;29;19927;-82
2023/05/12 01:02:29;;;;;;;;;;;11.70;99.90;;;;;;4884645;29;19975;-79
2023/05/12 01:04:55;;;;;;;;;;;11.70;99.90;;;;;;4915598;29;20022;-80
2023/05/12 01:07:21;;;;;;;;;;;11.70;99.90;;;;;;4901305;29;19927;-84
2023/05/12 01:09:47;;;;;;;;;;;11.70;99.90;;;;;;4883142;29;19934;-84
2023/05/12 01:12:12;;;;;;;;;;;11.70;99.90;;;;;;4884325;29;20286;-85
2023/05/12 01:14:39;;;;;;;;;;;11.70;99.90;;;;;;4887674;29;19938;-80
2023/05/12 01:17:07;;;;;;;;;;;11.70;99.90;;;;;;4919523;29;19986;-82
2023/05/12 01:19:39;;;;;;;;;;;11.70;99.90;;;;;;4897425;29;19966;-79
2023/05/12 01:22:05;;;;;;;;;;;11.70;99.90;;;;;;4900741;29;19927;-85
2023/05/12 01:24:33;;;;;;;;;;;11.70;99.90;;;;;;4915950;29;20006;-79
2023/05/12 01:26:59;;;;;;;;;;;11.70;99.90;;;;;;4900623;29;19935;-83
2023/05/12 01:29:26;;;;;;;;;;;11.80;99.90;;;;;;4899911;29;20306;-84
2023/05/12 01:31:51;;;;;;;;;;;11.70;99.90;;;;;;4915796;29;20034;-86
2023/05/12 01:34:17;;;;;;;;;;;11.70;99.90;;;;;;4900975;29;19971;-83
2023/05/12 01:36:43;;;;;;;;;;;11.80;99.90;;;;;;4900733;29;19950;-85
2023/05/12 01:39:09;;;;;;;;;;;11.80;99.90;;;;;;4915658;29;20271;-83
2023/05/12 01:41:34;;;;;;;;;;;11.80;99.90;;;;;;4885066;29;20390;-79
2023/05/12 01:44:00;;;;;;;;;;;11.80;99.90;;;;;;4899979;29;20407;-83
2023/05/12 01:46:26;;;;;;;;;;;11.80;99.90;;;;;;4915729;29;19970;-85
2023/05/12 01:48:51;;;;;;;;;;;11.80;99.90;;;;;;4915160;29;20004;-83
2023/05/12 01:51:17;;;;;;;;;;;11.70;99.90;;;;;;4884133;29;19931;-84
2023/05/12 01:53:42;;;;;;;;;;;11.70;99.90;;;;;;4899059;29;19975;-82
2023/05/12 01:56:08;;;;;;;;;;;11.70;99.90;;;;;;4900149;29;19934;-84
2023/05/12 01:58:33;;;;;;;;;;;11.80;99.90;;;;;;4900454;29;19931;-84
2023/05/12 02:00:59;;;;;;;;;;;11.70;99.90;;;;;;4883166;29;19927;-85
2023/05/12 02:03:24;;;;;;;;;;;11.80;99.90;;;;;;4899119;29;19934;-85
2023/05/12 02:05:50;;;;;;;;;;;11.70;99.90;;;;;;4882946;29;20359;-83
2023/05/12 02:08:16;;;;;;;;;;;11.70;99.90;;;;;;4899227;29;19927;-83
2023/05/12 02:10:42;;;;;;;;;;;11.70;99.90;;;;;;4874594;29;19985;-82
2023/05/12 02:13:07;;;;;;;;;;;11.70;99.90;;;;;;4883768;29;19931;-82
2023/05/12 02:15:33;;;;;;;;;;;11.70;99.90;;;;;;4903458;29;20022;-84
2023/05/12 02:17:58;;;;;;;;;;;11.70;99.90;;;;;;4883680;29;19933;-84
2023/05/12 02:20:24;;;;;;;;;;;11.80;99.90;;;;;;4899080;29;19931;-83
2023/05/12 02:22:49;;;;;;;;;;;11.80;99.90;;;;;;4914558;29;19927;-84
2023/05/12 02:25:15;;;;;;;;;;;11.80;99.90;;;;;;4913688;29;19927;-74
2023/05/12 02:27:41;;;;;;;;;;;11.70;99.90;;;;;;4880995;29;20440;-71
2023/05/12 02:30:07;;;;;;;;;;;11.70;99.90;;;;;;4912963;29;20006;-74
2023/05/12 02:32:32;;;;;;;;;;;11.70;99.90;;;;;;4897185;29;20021;-74
2023/05/12 02:34:58;;;;;;;;;;;11.70;99.90;;;;;;4896615;29;20382;-74
2023/05/12 02:37:23;;;;;;;;;;;11.80;99.90;;;;;;4881320;29;20089;-74
2023/05/12 02:39:49;;;;;;;;;;;11.70;99.90;;;;;;4897666;29;20246;-74
2023/05/12 02:42:15;;;;;;;;;;;11.70;99.90;;;;;;4881571;29;19928;-74
2023/05/12 02:44:40;;;;;;;;;;;11.70;99.90;;;;;;4897996;29;20289;-74
2023/05/12 02:47:06;;;;;;;;;;;11.60;99.90;;;;;;4896056;29;19927;-74
2023/05/12 02:49:31;;;;;;;;;;;11.70;99.90;;;;;;4897821;29;19934;-74
2023/05/12 02:51:57;;;;;;;;;;;11.70;99.90;;;;;;4880842;29;19927;-74
2023/05/12 02:54:23;;;;;;;;;;;11.70;99.90;;;;;;4896901;29;20374;-74
2023/05/12 02:56:48;;;;;;;;;;;11.70;99.90;;;;;;4911950;29;19928;-73
2023/05/12 02:59:14;;;;;;;;;;;11.60;99.90;;;;;;4912392;29;19931;-74
2023/05/12 03:01:39;;;;;;;;;;;11.70;99.90;;;;;;4896598;29;19927;-74
2023/05/12 03:04:05;;;;;;;;;;;11.60;99.90;;;;;;4896416;29;19928;-73
2023/05/12 03:06:30;;;;;;;;;;;11.60;99.90;;;;;;4897726;29;19927;-74
2023/05/12 03:08:56;;;;;;;;;;;11.60;99.90;;;;;;4880894;29;20289;-74
2023/05/12 03:11:22;;;;;;;;;;;11.60;99.90;;;;;;4896452;29;19935;-74
2023/05/12 03:13:47;;;;;;;;;;;11.50;99.90;;;;;;4897431;29;19927;-73
2023/05/12 03:16:13;;;;;;;;;;;11.50;99.90;;;;;;4897233;29;19935;-73
2023/05/12 03:18:39;;;;;;;;;;;11.50;99.90;;;;;;4880781;29;19935;-74
2023/05/12 03:21:04;;;;;;;;;;;11.50;99.90;;;;;;4865359;29;20018;-74
2023/05/12 03:23:30;;;;;;;;;;;11.60;99.90;;;;;;4880365;29;19991;-74
2023/05/12 03:25:55;;;;;;;;;;;11.50;99.90;;;;;;4897071;29;20079;-74
2023/05/12 03:28:23;;;;;;;;;;;11.50;99.90;;;;;;4896201;29;19943;-75
2023/05/12 03:30:49;;;;;;;;;;;11.60;99.90;;;;;;4896775;29;19927;-71
2023/05/12 03:33:14;;;;;;;;;;;11.50;99.90;;;;;;4896670;29;20055;-74
2023/05/12 03:35:40;;;;;;;;;;;11.50;99.90;;;;;;4895832;29;20289;-72
2023/05/12 03:38:05;;;;;;;;;;;11.50;99.90;;;;;;4896033;29;19928;-74
2023/05/12 03:40:31;;;;;;;;;;;11.50;99.90;;;;;;4896971;29;19927;-74
2023/05/12 03:42:57;;;;;;;;;;;11.50;99.90;;;;;;4911739;29;20293;-74
2023/05/12 03:45:22;;;;;;;;;;;11.60;99.90;;;;;;4896082;29;19977;-75
2023/05/12 03:47:48;;;;;;;;;;;11.50;99.90;;;;;;4896342;29;19934;-74
2023/05/12 03:50:13;;;;;;;;;;;11.50;99.90;;;;;;4897015;29;19935;-74
2023/05/12 03:52:40;;;;;;;;;;;11.50;99.90;;;;;;4897208;29;19923;-74
2023/05/12 03:55:06;;;;;;;;;;;11.40;99.90;;;;;;4896196;29;19970;-75
2023/05/12 03:57:33;;;;;;;;;;;11.50;99.90;;;;;;4896100;29;20014;-74
2023/05/12 03:59:59;;;;;;;;;;;11.50;99.90;;;;;;4896053;29;19934;-73
2023/05/12 04:02:25;;;;;;;;;;;11.50;99.90;;;;;;4896318;29;20014;-74
2023/05/12 04:04:50;;;;;;;;;;;11.50;99.90;;;;;;4895997;29;20006;-74
2023/05/12 04:07:16;;;;;;;;;;;11.50;99.90;;;;;;4911324;29;20342;-71
2023/05/12 04:09:42;;;;;;;;;;;11.60;99.90;;;;;;4911883;29;20350;-76
2023/05/12 04:12:09;;;;;;;;;;;11.50;99.90;;;;;;4895556;29;19927;-75
2023/05/12 04:14:34;;;;;;;;;;;11.50;99.90;;;;;;4897339;29;19970;-74
2023/05/12 04:17:00;;;;;;;;;;;11.60;99.90;;;;;;4911719;29;19978;-72
2023/05/12 04:19:25;;;;;;;;;;;11.60;99.90;;;;;;4911850;29;19927;-72
2023/05/12 04:21:51;;;;;;;;;;;11.60;99.90;;;;;;4896966;29;20082;-72
2023/05/12 04:24:17;;;;;;;;;;;11.60;99.90;;;;;;4896731;29;20325;-72
2023/05/12 04:26:42;;;;;;;;;;;11.60;99.90;;;;;;4895803;29;19983;-72
2023/05/12 04:29:08;;;;;;;;;;;11.60;99.90;;;;;;4911360;29;20344;-72
2023/05/12 04:31:34;;;;;;;;;;;11.70;99.90;;;;;;4880197;29;19931;-72
2023/05/12 04:34:00;;;;;;;;;;;11.60;99.90;;;;;;4880123;29;19935;-72
2023/05/12 04:36:25;;;;;;;;;;;11.70;99.90;;;;;;4896791;29;20014;-72
2023/05/12 04:38:51;;;;;;;;;;;11.80;99.90;;;;;;4896858;29;20101;-72
2023/05/12 04:41:16;;;;;;;;;;;11.70;99.90;;;;;;4895348;29;20382;-72
2023/05/12 04:43:42;;;;;;;;;;;11.80;99.90;;;;;;4864652;29;19932;-72
2023/05/12 04:46:07;;;;;;;;;;;11.70;99.90;;;;;;4899589;29;20020;-72
2023/05/12 04:48:33;;;;;;;;;;;11.80;99.90;;;;;;4900302;29;20297;-74
2023/05/12 04:50:59;;;;;;;;;;;11.90;99.90;;;;;;4900294;29;19927;-73
2023/05/12 04:53:25;;;;;;;;;;;12.00;99.90;;;;;;4883576;29;19967;-73
2023/05/12 04:55:51;;;;;;;;;;;12.00;99.90;;;;;;4899990;29;19928;-71
2023/05/12 04:58:17;;;;;;;;;;;12.00;99.90;;;;;;4883316;29;19928;-73
2023/05/12 05:00:42;;;;;;;;;;;12.00;99.90;;;;;;4898949;29;19928;-74
2023/05/12 05:03:08;;;;;;;;;;;12.00;99.90;;;;;;4883101;29;19979;-73
2023/05/12 05:05:34;;;;;;;;;;;12.10;99.90;;;;;;4899770;29;19931;-73
2023/05/12 05:08:00;;;;;;;;;;;12.10;99.90;;;;;;4898618;29;19927;-73
2023/05/12 05:10:25;;;;;;;;;;;12.10;99.90;;;;;;4898343;29;20022;-73
2023/05/12 05:12:51;;;;;;;;;;;12.10;99.90;;;;;;4883299;29;20014;-73
2023/05/12 05:15:17;;;;;;;;;;;12.20;99.90;;;;;;4899758;29;19927;-73
2023/05/12 05:17:47;;;;;;;;;;;12.20;99.90;;;;;;4882910;29;20382;-73
2023/05/12 05:20:13;;;;;;;;;;;12.10;99.90;;;;;;4898377;29;20383;-73
2023/05/12 05:22:39;;;;;;;;;;;12.20;99.90;;;;;;4914335;29;19970;-73
2023/05/12 05:25:05;;;;;;;;;;;12.10;99.90;;;;;;4899033;29;20298;-72
2023/05/12 05:27:31;;;;;;;;;;;12.10;99.90;;;;;;4899409;29;20087;-73
2023/05/12 05:29:56;;;;;;;;;;;12.10;99.90;;;;;;4913517;29;20058;-73
2023/05/12 05:32:22;;;;;;;;;;;12.20;99.90;;;;;;4899008;29;19927;-73
2023/05/12 05:34:48;;;;;;;;;;;12.10;99.90;;;;;;4882557;29;19928;-73
2023/05/12 05:37:13;;;;;;;;;;;12.20;99.90;;;;;;4898988;29;19938;-73
2023/05/12 05:39:39;;;;;;;;;;;12.20;99.90;;;;;;4899389;29;19927;-73
2023/05/12 05:42:04;;;;;;;;;;;12.20;99.90;;;;;;4898866;29;19927;-73
2023/05/12 05:44:30;;;;;;;;;;;12.20;99.90;;;;;;4898921;29;19955;-72
2023/05/12 05:46:55;;;;;;;;;;;12.30;99.90;;;;;;4899169;29;20293;-71
2023/05/12 05:49:21;;;;;;;;;;;12.30;99.90;;;;;;4898936;29;19950;-72
2023/05/12 05:51:47;;;;;;;;;;;12.30;99.90;;;;;;4898060;29;19975;-71
2023/05/12 05:54:13;;;;;;;;;;;12.40;99.90;;;;;;4913570;29;19932;-72
2023/05/12 05:56:38;;;;;;;;;;;12.40;99.90;;;;;;4912867;29;20285;-72
2023/05/12 05:59:04;;;;;;;;;;;12.40;99.90;;;;;;4897743;29;19931;-73
2023/05/12 06:01:30;;;;;;;;;;;12.40;99.90;;;;;;4899216;29;20377;-73
2023/05/12 06:03:56;;;;;;;;;;;12.40;99.90;;;;;;4913366;29;20309;-71
2023/05/12 06:06:21;;;;;;;;;;;12.50;99.90;;;;;;4898221;29;19935;-71
2023/05/12 06:08:47;;;;;;;;;;;12.50;99.90;;;;;;4898416;29;19970;-71
2023/05/12 06:11:12;;;;;;;;;;;12.60;99.90;;;;;;4898615;29;20087;-72
2023/05/12 06:13:38;;;;;;;;;;;12.60;99.90;;;;;;4881881;29;20026;-72
2023/05/12 06:16:04;;;;;;;;;;;12.70;99.90;;;;;;4898839;29;19939;-71
2023/05/12 06:18:32;;;;;;;;;;;12.60;99.90;;;;;;4913267;29;19928;-71
2023/05/12 06:20:58;;;;;;;;;;;12.70;99.90;;;;;;4897504;29;20335;-72
2023/05/12 06:23:23;;;;;;;;;;;12.70;99.90;;;;;;4898623;29;19932;-72
2023/05/12 06:25:49;;;;;;;;;;;12.90;99.90;;;;;;4898787;29;19928;-71
2023/05/12 06:28:15;;;;;;;;;;;12.90;99.90;;;;;;4897509;29;20294;-72
2023/05/12 06:30:40;;;;;;;;;;;13.00;99.90;;;;;;4897455;29;19928;-72
2023/05/12 06:33:06;;;;;;;;;;;13.00;99.90;;;;;;4897233;29;20297;-72
2023/05/12 06:35:32;;;;;;;;;;;13.10;99.90;;;;;;4912289;29;20001;-73
2023/05/12 06:37:57;;;;;;;;;;;13.10;99.90;;;;;;4897578;29;19935;-74
2023/05/12 06:40:23;;;;;;;;;;;13.10;99.90;;;;;;4897279;29;19935;-74
2023/05/12 06:42:49;;;;;;;;;;;13.20;99.90;;;;;;4897015;29;20377;-74
2023/05/12 06:45:14;;;;;;;;;;;13.30;99.90;;;;;;4898242;29;19927;-75
2023/05/12 06:47:40;;;;;;;;;;;13.30;99.90;;;;;;4897724;29;19995;-73
2023/05/12 06:50:09;;;;;;;;;;;13.40;99.90;;;;;;4866147;29;19934;-76
2023/05/12 06:52:34;;;;;;;;;;;13.40;99.90;;;;;;4896768;29;19935;-74
2023/05/12 06:55:00;;;;;;;;;;;13.60;99.90;;;;;;4881232;29;19927;-70
2023/05/12 06:57:25;;;;;;;;;;;13.60;99.90;;;;;;4896394;29;19927;-73
2023/05/12 06:59:51;;;;;;;;;;;13.70;99.90;;;;;;4896666;29;19945;-73
2023/05/12 07:02:17;;;;;;;;;;;13.70;99.90;;;;;;4896630;29;19932;-72
2023/05/12 07:04:42;;;;;;;;;;;13.80;99.90;;;;;;4896003;29;20425;-73
2023/05/12 07:07:08;;;;;;;;;;;13.80;99.90;;;;;;4897633;29;19943;-73
2023/05/12 07:09:33;;;;;;;;;;;13.80;99.90;;;;;;4911502;29;20039;-74
2023/05/12 07:11:59;;;;;;;;;;;13.70;99.90;;;;;;4881224;29;19927;-73
2023/05/12 07:14:25;;;;;;;;;;;14.10;99.90;;;;;;4896526;29;19983;-73
2023/05/12 07:16:50;;;;;;;;;;;14.00;99.90;;;;;;4897734;29;20009;-76
2023/05/12 07:19:16;;;;;;;;;;;14.10;99.90;;;;;;4912310;29;19928;-75
2023/05/12 07:21:42;;;;;;;;;;;14.30;99.90;;;;;;4896478;29;19928;-74
2023/05/12 07:24:08;;;;;;;;;;;14.30;99.90;;;;;;4895953;29;19923;-73
2023/05/12 07:26:34;;;;;;;;;;;14.50;99.90;;;;;;4896281;29;19931;-72
2023/05/12 07:29:00;;;;;;;;;;;14.60;99.90;;;;;;4897760;29;20263;-74
2023/05/12 07:31:25;;;;;;;;;;;14.80;99.90;;;;;;4880899;29;19928;-72
2023/05/12 07:33:51;;;;;;;;;;;14.90;99.90;;;;;;4896307;29;19959;-72
2023/05/12 07:36:16;;;;;;;;;;;15.00;99.90;;;;;;4897475;29;19946;-72
2023/05/12 07:38:42;;;;;;;;;;;15.10;99.90;;;;;;4911528;29;19927;-71
2023/05/12 07:41:07;;;;;;;;;;;15.20;99.90;;;;;;4912322;29;19927;-72
2023/05/12 07:43:33;;;;;;;;;;;15.20;99.90;;;;;;4897128;29;20369;-72
2023/05/12 07:45:59;;;;;;;;;;;15.30;99.90;;;;;;4896303;29;19947;-74
2023/05/12 07:48:25;;;;;;;;;;;15.40;99.90;;;;;;4911818;29;20305;-72
2023/05/12 07:50:51;;;;;;;;;;;15.50;99.90;;;;;;4897444;29;19938;-72
2023/05/12 07:53:17;;;;;;;;;;;15.50;99.90;;;;;;4896574;29;19927;-73
2023/05/12 07:55:44;;;;;;;;;;;15.70;99.90;;;;;;4911948;29;20445;-73
2023/05/12 07:58:10;;;;;;;;;;;15.80;99.90;;;;;;4896460;29;19934;-72
2023/05/12 08:00:36;;;;;;;;;;;15.90;99.90;;;;;;4895630;29;19927;-72
2023/05/12 08:03:01;;;;;;;;;;;16.00;99.90;;;;;;4896335;29;19934;-73
2023/05/12 08:05:27;;;;;;;;;;;16.00;99.90;;;;;;4895560;29;20270;-70
2023/05/12 08:07:53;;;;;;;;;;;16.10;99.90;;;;;;4896266;29;19934;-71
2023/05/12 08:10:18;;;;;;;;;;;16.10;99.90;;;;;;4880896;29;19959;-72
2023/05/12 08:12:44;;;;;;;;;;;16.20;99.90;;;;;;4896762;29;20282;-71
2023/05/12 08:15:09;;;;;;;;;;;16.20;99.90;;;;;;4865056;29;19927;-65
2023/05/12 08:17:35;;;;;;;;;;;16.20;99.90;;;;;;4895576;29;19928;-64
2023/05/12 08:20:03;;;;;;;;;;;16.30;99.90;;;;;;4898401;29;19934;-69
2023/05/12 08:22:29;;;;;;;;;;;16.30;99.90;;;;;;4883800;29;20411;-69
2023/05/12 08:24:54;;;;;;;;;;;16.30;99.90;;;;;;4900875;29;19934;-68
2023/05/12 08:27:20;;;;;;;;;;;16.30;99.90;;;;;;4900358;29;20270;-69
2023/05/12 08:29:45;;;;;;;;;;;16.40;99.90;;;;;;4899248;29;19927;-69
2023/05/12 08:32:11;;;;;;;;;;;16.40;99.90;;;;;;4899505;29;19927;-68
2023/05/12 08:34:37;;;;;;;;;;;16.50;99.90;;;;;;4915149;29;19979;-68
2023/05/12 08:37:03;;;;;;;;;;;16.60;99.90;;;;;;4899454;29;19935;-70
2023/05/12 08:39:29;;;;;;;;;;;16.80;99.90;;;;;;4899398;29;19974;-71
2023/05/12 08:42:09;;;;;;;;;;;16.80;99.90;;;;;;4899422;29;20018;-70
2023/05/12 08:44:38;;;;;;;;;;;17.10;99.90;;;;;;4899343;29;19927;-69
2023/05/12 08:47:07;;;;;;;;;;;17.30;99.90;;;;;;4900067;29;19931;-70
2023/05/12 08:49:34;;;;;;;;;;;17.50;99.90;;;;;;4900375;29;19927;-68
2023/05/12 08:52:00;;;;;;;;;;;17.80;99.90;;;;;;4899418;29;19928;-69
2023/05/12 08:54:27;;;;;;;;;;;18.20;99.90;;;;;;4899350;29;20334;-69
2023/05/12 08:56:52;;;;;;;;;;;18.40;99.90;;;;;;4898809;29;19923;-69
2023/05/12 08:59:18;;;;;;;;;;;18.90;99.90;;;;;;4914633;29;19979;-70
2023/05/12 09:01:46;;;;;;;;;;;19.30;99.90;;;;;;4899138;29;19931;-70
2023/05/12 09:04:14;;;;;;;;;;;19.80;99.90;;;;;;4900133;29;20014;-70
2023/05/12 09:06:43;;;;;;;;;;;20.60;99.90;;;;;;4898327;29;19997;-70
2023/05/12 09:09:09;;;;;;;;;;;21.20;99.90;;;;;;4881123;29;19927;-72
2023/05/12 09:11:35;;;;;;;;;;;21.40;99.90;;;;;;4880416;29;19927;-72
2023/05/12 09:14:05;;;;;;;;;;;21.60;99.90;;;;;;4899214;29;19928;-71
2023/05/12 09:16:42;;;;;;;;;;;21.70;99.90;;;;;;4898651;29;20357;-71
2023/05/12 09:19:07;;;;;;;;;;;21.70;99.90;;;;;;4898885;29;19934;-72
2023/05/12 09:21:33;;;;;;;;;;;21.60;99.90;;;;;;4899096;29;19928;-70
2023/05/12 09:24:00;;;;;;;;;;;21.70;99.90;;;;;;4898450;29;19935;-71
2023/05/12 09:26:26;;;;;;;;;;;22.00;99.90;;;;;;4898407;29;19928;-72
2023/05/12 09:28:52;;;;;;;;;;;21.90;99.90;;;;;;4896103;29;20010;-72
2023/05/12 09:31:19;;;;;;;;;;;21.80;99.90;;;;;;4895032;29;20024;-71
2023/05/12 09:33:44;;;;;;;;;;;21.90;99.90;;;;;;4897728;29;19979;-73
2023/05/12 09:36:10;;;;;;;;;;;21.80;99.90;;;;;;4897516;29;19928;-74
2023/05/12 09:38:36;;;;;;;;;;;21.60;99.90;;;;;;4898428;29;20022;-73
2023/05/12 09:41:01;;;;;;;;;;;21.30;99.90;;;;;;4896117;29;19978;-73
2023/05/12 09:43:27;;;;;;;;;;;21.30;99.90;;;;;;4899444;29;19927;-73
2023/05/12 09:45:54;;;;;;;;;;;21.40;99.90;;;;;;4882345;29;19938;-73
2023/05/12 09:48:20;;;;;;;;;;;21.30;99.90;;;;;;4898491;29;19944;-70
2023/05/12 09:50:50;;;;;;;;;;;21.20;99.90;;;;;;4894310;29;19924;-69
2023/05/12 09:53:17;;;;;;;;;;;21.00;99.90;;;;;;4899142;29;19974;-70
2023/05/12 09:55:43;;;;;;;;;;;21.00;99.90;;;;;;4898943;29;19983;-71
2023/05/12 09:58:09;;;;;;;;;;;21.10;99.90;;;;;;4898097;29;19927;-72
2023/05/12 10:00:37;;;;;;;;;;;21.10;99.90;;;;;;4882364;29;19975;-74
2023/05/12 10:03:09;;;;;;;;;;;21.00;99.90;;;;;;4882259;29;19927;-70
2023/05/12 10:05:35;;;;;;;;;;;21.00;99.90;;;;;;4898742;29;20007;-73
2023/05/12 10:08:02;;;;;;;;;;;21.20;99.90;;;;;;4897286;29;19927;-70
2023/05/12 10:10:28;;;;;;;;;;;21.30;99.90;;;;;;4881929;29;19927;-71
2023/05/12 10:12:54;;;;;;;;;;;21.30;99.90;;;;;;4882207;29;19951;-71
2023/05/12 10:15:21;;;;;;;;;;;21.30;99.90;;;;;;4898040;29;19935;-72
2023/05/12 10:17:47;;;;;;;;;;;21.20;99.90;;;;;;4881948;29;19928;-70
2023/05/12 10:20:14;;;;;;;;;;;21.20;99.90;;;;;;4913396;29;20334;-70
2023/05/12 10:22:40;;;;;;;;;;;21.10;99.90;;;;;;4882322;29;19933;-73
2023/05/12 10:25:09;;;;;;;;;;;21.10;99.90;;;;;;4898424;29;20352;-71
2023/05/12 10:27:35;;;;;;;;;;;21.00;99.90;;;;;;4882150;29;19928;-71
2023/05/12 10:30:03;;;;;;;;;;;20.90;99.90;;;;;;4897501;29;19934;-73
2023/05/12 10:32:28;;;;;;;;;;;20.80;99.90;;;;;;4913581;29;19927;-71
2023/05/12 10:34:55;;;;;;;;;;;20.80;99.90;;;;;;4881697;29;19928;-71
2023/05/12 10:37:23;;;;;;;;;;;20.80;99.90;;;;;;4913407;29;20338;-71
2023/05/12 10:39:50;;;;;;;;;;;20.90;99.90;;;;;;4898296;29;19928;-71
2023/05/12 10:42:19;;;;;;;;;;;20.90;99.90;;;;;;4897636;29;19936;-71
2023/05/12 10:44:52;;;;;;;;;;;20.90;99.90;;;;;;4898407;29;20288;-72
2023/05/12 10:47:17;;;;;;;;;;;20.90;99.90;;;;;;4897157;29;19928;-71
2023/05/12 10:49:43;;;;;;;;;;;20.90;99.90;;;;;;4881876;29;19953;-70
2023/05/12 10:52:12;;;;;;;;;;;20.90;99.90;;;;;;4866088;29;19950;-70
2023/05/12 10:54:44;;;;;;;;;;;20.90;99.90;;;;;;4897322;29;20010;-70
2023/05/12 10:57:19;;;;;;;;;;;20.90;99.90;;;;;;4881340;29;19934;-71
2023/05/12 10:59:51;;;;;;;;;;;20.90;99.90;;;;;;4897042;29;20286;-70
2023/05/12 11:02:18;;;;;;;;;;;20.80;99.90;;;;;;4898108;29;19928;-72
2023/05/12 11:05:00;;;;;;;;;;;20.90;99.90;;;;;;4897254;29;20067;-70
2023/05/12 11:07:27;;;;;;;;;;;21.00;99.90;;;;;;4881246;29;19975;-70
2023/05/12 11:09:54;;;;;;;;;;;21.10;99.90;;;;;;4881036;29;19928;-71
2023/05/12 11:12:19;;;;;;;;;;;21.20;99.90;;;;;;4896616;29;20382;-71
2023/05/12 11:14:48;;;;;;;;;;;21.30;99.90;;;;;;4896873;29;19934;-70
2023/05/12 11:17:14;;;;;;;;;;;21.40;99.90;;;;;;4861621;29;20294;-71
2023/05/12 11:19:43;;;;;;;;;;;21.40;99.90;;;;;;4881458;29;19928;-70
2023/05/12 11:22:11;;;;;;;;;;;21.50;99.90;;;;;;4881006;29;20406;-71
2023/05/12 11:24:38;;;;;;;;;;;21.60;99.90;;;;;;4881065;29;19927;-73
2023/05/12 11:27:04;;;;;;;;;;;21.70;99.90;;;;;;4896167;29;19934;-72
2023/05/12 11:29:30;;;;;;;;;;;21.70;99.90;;;;;;4896731;29;20278;-71
2023/05/12 11:31:56;;;;;;;;;;;21.80;99.90;;;;;;4880769;29;20289;-72
2023/05/12 11:34:22;;;;;;;;;;;21.80;99.90;;;;;;4897452;29;19927;-73
2023/05/12 11:36:49;;;;;;;;;;;21.70;99.90;;;;;;4880286;29;19927;-73
2023/05/12 11:39:15;;;;;;;;;;;21.80;99.90;;;;;;4896383;29;20390;-73
2023/05/12 11:41:41;;;;;;;;;;;21.80;99.90;;;;;;4912323;29;19927;-73
2023/05/12 11:44:14;;;;;;;;;;;21.80;99.90;;;;;;4896473;29;20330;-73
2023/05/12 11:46:40;;;;;;;;;;;21.80;99.90;;;;;;4880911;29;19982;-72
2023/05/12 11:49:09;;;;;;;;;;;21.80;99.90;;;;;;4896223;29;19970;-72
2023/05/12 11:51:40;;;;;;;;;;;21.80;99.90;;;;;;4880861;29;19928;-72
2023/05/12 11:54:05;;;;;;;;;;;21.70;99.90;;;;;;4913179;29;19927;-72
2023/05/12 11:56:31;;;;;;;;;;;21.70;99.90;;;;;;4887273;29;19983;-73
2023/05/12 11:58:57;;;;;;;;;;;21.80;99.90;;;;;;4902360;29;19935;-73
2023/05/12 12:01:23;;;;;;;;;;;21.90;99.90;;;;;;4903693;29;19983;-72
2023/05/12 12:03:50;;;;;;;;;;;21.90;99.90;;;;;;4886752;29;20290;-72
2023/05/12 12:06:16;;;;;;;;;;;21.90;99.90;;;;;;4886203;29;20417;-72
2023/05/12 12:08:56;;;;;;;;;;;21.90;99.90;;;;;;4902759;29;19928;-72
2023/05/12 12:11:22;;;;;;;;;;;21.90;99.90;;;;;;4903138;29;19935;-72
2023/05/12 12:13:55;;;;;;;;;;;21.90;99.90;;;;;;4902567;29;19999;-71
2023/05/12 12:16:24;;;;;;;;;;;21.90;99.90;;;;;;4901668;29;20445;-72
2023/05/12 12:18:50;;;;;;;;;;;21.90;99.90;;;;;;4902442;29;20006;-75
2023/05/12 12:21:16;;;;;;;;;;;21.90;99.90;;;;;;4902252;29;20022;-74
2023/05/12 12:23:42;;;;;;;;;;;21.90;99.90;;;;;;4886073;29;20269;-72
2023/05/12 12:26:07;;;;;;;;;;;21.90;99.90;;;;;;4903120;29;19986;-72
2023/05/12 12:28:34;;;;;;;;;;;22.00;99.90;;;;;;4903417;29;19934;-72
2023/05/12 12:31:00;;;;;;;;;;;22.00;99.90;;;;;;4918050;29;19927;-72
2023/05/12 12:33:25;;;;;;;;;;;21.90;99.90;;;;;;4902355;29;19927;-73
2023/05/12 12:35:51;;;;;;;;;;;22.00;99.90;;;;;;4918083;29;19927;-73
2023/05/12 12:38:16;;;;;;;;;;;22.00;99.90;;;;;;4917956;29;19995;-73
2023/05/12 12:40:42;;;;;;;;;;;22.10;99.90;;;;;;4918229;29;19935;-74
2023/05/12 12:43:08;;;;;;;;;;;22.10;99.90;;;;;;4902183;29;19983;-74
2023/05/12 12:45:34;;;;;;;;;;;22.10;99.90;;;;;;4886827;29;19942;-73
2023/05/12 12:48:00;;;;;;;;;;;22.10;99.90;;;;;;4902268;29;19947;-73
2023/05/12 12:50:25;;;;;;;;;;;22.20;99.90;;;;;;4886201;29;19934;-74
2023/05/12 12:52:51;;;;;;;;;;;22.20;99.90;;;;;;4918003;29;19927;-73
2023/05/12 12:55:16;;;;;;;;;;;22.10;99.90;;;;;;4917703;29;19927;-73
2023/05/12 12:57:42;;;;;;;;;;;22.10;99.90;;;;;;4886757;29;20018;-73
2023/05/12 13:00:08;;;;;;;;;;;22.20;99.90;;;;;;4886412;29;20026;-73
2023/05/12 13:02:34;;;;;;;;;;;22.30;99.90;;;;;;4901939;29;20022;-73
2023/05/12 13:05:02;;;;;;;;;;;22.30;99.90;;;;;;4901545;29;20351;-73
2023/05/12 13:07:29;;;;;;;;;;;22.30;99.90;;;;;;4898680;29;20018;-73
2023/05/12 13:09:55;;;;;;;;;;;22.30;99.90;;;;;;4900188;29;19932;-73
2023/05/12 13:12:20;;;;;;;;;;;22.30;99.90;;;;;;4898513;29;19978;-72
2023/05/12 13:14:46;;;;;;;;;;;22.30;99.90;;;;;;4898931;29;19927;-73
2023/05/12 13:17:11;;;;;;;;;;;22.30;99.90;;;;;;4898509;29;19928;-73
2023/05/12 13:19:37;;;;;;;;;;;22.40;99.90;;;;;;4914679;29;20481;-72
2023/05/12 13:22:03;;;;;;;;;;;22.40;99.90;;;;;;4883304;29;19934;-73
2023/05/12 13:24:28;;;;;;;;;;;22.50;99.90;;;;;;4883019;29;19927;-73
2023/05/12 13:26:54;;;;;;;;;;;22.50;99.90;;;;;;4882536;29;19960;-74
2023/05/12 13:29:19;;;;;;;;;;;22.50;99.90;;;;;;4899419;29;19927;-72
2023/05/12 13:31:45;;;;;;;;;;;22.60;99.90;;;;;;4883263;29;19927;-73
2023/05/12 13:34:12;;;;;;;;;;;22.70;99.90;;;;;;4898244;29;20330;-73
2023/05/12 13:36:37;;;;;;;;;;;22.80;99.90;;;;;;4883063;29;19927;-73
2023/05/12 13:39:03;;;;;;;;;;;22.80;99.90;;;;;;4883036;29;19933;-73
2023/05/12 13:41:28;;;;;;;;;;;22.90;99.90;;;;;;4914154;29;20124;-73
2023/05/12 13:43:54;;;;;;;;;;;22.90;99.90;;;;;;4898245;29;19927;-73
2023/05/12 13:46:20;;;;;;;;;;;22.80;99.90;;;;;;4897995;29;19931;-73
2023/05/12 13:48:46;;;;;;;;;;;22.80;99.90;;;;;;4898674;29;19928;-73
2023/05/12 13:51:12;;;;;;;;;;;22.80;99.90;;;;;;4913817;29;19928;-73
2023/05/12 13:53:38;;;;;;;;;;;22.90;99.90;;;;;;4882351;29;19928;-74
2023/05/12 13:56:04;;;;;;;;;;;22.90;99.90;;;;;;4913982;29;19932;-74
2023/05/12 13:58:30;;;;;;;;;;;23.00;99.90;;;;;;4898105;29;20296;-74
2023/05/12 14:00:56;;;;;;;;;;;23.00;99.90;;;;;;4882820;29;20094;-74
2023/05/12 14:03:22;;;;;;;;;;;23.00;99.90;;;;;;4882381;29;20346;-74
2023/05/12 14:05:47;;;;;;;;;;;22.80;99.90;;;;;;4913464;29;19927;-74
2023/05/12 14:08:13;;;;;;;;;;;22.60;99.90;;;;;;4897953;29;20026;-74
2023/05/12 14:10:38;;;;;;;;;;;22.50;99.90;;;;;;4898111;29;19956;-74